Terminal Aerodrome Forecast
Issued by NWS Bismarck, ND

Home | Current Version | Previous Version | Graphics & Text | Print | Product List | Glossary On
Versions: 1 2 3 4 5 6 7 8 9 10 11 12 13 14 15 16 17 18 19
000
FTUS43 KBIS 192300
TAFBIS
TAF
KBIS 192339Z 2000/2024 09003KT P6SM SKC
     FM200300 VRB03KT 4SM BR OVC005
     FM202000 20005KT P6SM SCT005 BKN150=

USA.gov is the U.S. government's official web portal to all federal, state and local government web resources and services.